Avon, CO (81620)

6:59 PM MDT on July 05, 2015 (GMT -0600)
Whiskey Hill, EagleVail | | Change Station
CLOSE
Current Station
Personal Weather Station
Location: Avon, CO
Elevation: 7959 ft
Nearby Weather Stations

Elev 7959 ft 39.61 °N, 106.48 °W | Updated 14 minutes ago

Overcast
Overcast
62.8 °F
Feels Like 62.8 °F
N
0.0
Wind Variable Wind from North
Gusts 0.0 mph

Today
High -- | Low -- °F
--% Chance of Precip.
Yesterday
High -- | Low -- °F
Precip. -- in
5:44 AM 8:36 PM
Waning Gibbous, 80% visible
Pressure 30.17 in
Visibility 10.0 miles
Clouds Few 4600 ft
Overcast 6500 ft
Dew Point 41 °F
Humidity 45%
Rainfall 0.12 in
Snow Depth Not available.
UV 1 out of 12
Pollen 4.80 out of 12
Air Quality Not available.
Flu Activity Not available.
METAR KEGE 052355Z 24012KT 10SM FEW046 OVC065 21/13 A3017

More Conditions Fewer Conditions

Pressure 30.17 in
Visibility 10.0 miles
Clouds Few 4600 ft
Overcast 6500 ft
Dew Point 41 °F
Humidity 45%
Rainfall 0.12 in
Snow Depth Not available.
UV 1 out of 12
Pollen 4.80 out of 12
Air Quality Not available.
Flu Activity Not available.
METAR KEGE 052355Z 24012KT 10SM FEW046 OVC065 21/13 A3017

More Conditions Fewer Conditions

10-Day Weather Forecast

×

Almanac

Astronomy

Jul. 05, 2015 Rise Set
Actual Time
Civil Twilight
Nautical Twilight
Astronomical Twilight
Moon
Length of Visible Light
Length of Day
Tomorrow will be .
, % of the Moon is Illuminated

Today's Extremes

State Highs State Lows

Community

WunderPhotos

Upload Photos

1,835,438 photos uploaded!

WunderBlogs® & News

Nearby

Air Quality

  Air Quality AQ Index Pollutant
Not available.

Snow Depth

Station Depth Elevation

Earthquake Activity

City Distance Mag. Time & Date
Minimum magnitude displayed is 2.5.

Coastal Water Temperatures

Place Temperature

Stations

Nearby Weather Stations

Station Location Temp. Windchill Dew Point Humidity Wind Precip. Elev Updated Type